createdAt,value
2023-04-06T00:02:23.543Z,102794.59
2023-04-06T00:04:51.557Z,102779.84
2023-04-06T00:07:19.600Z,102781.53
2023-04-06T00:09:47.746Z,102777.22
2023-04-06T00:12:17.971Z,102778.09
2023-04-06T00:14:46.099Z,102779.91
2023-04-06T00:17:14.110Z,102780.84
2023-04-06T00:19:42.383Z,102776.31
2023-04-06T00:22:10.652Z,102776.25
2023-04-06T00:24:38.698Z,102782.25
2023-04-06T00:27:06.754Z,102781.25
2023-04-06T00:29:36.337Z,102782.78
2023-04-06T00:32:04.883Z,102773.03
2023-04-06T00:34:32.915Z,102781.84
2023-04-06T00:37:01.810Z,102774.72
2023-04-06T00:39:29.832Z,102774.75
2023-04-06T00:41:58.614Z,102770.28
2023-04-06T00:44:26.882Z,102767.59
2023-04-06T00:46:56.789Z,102761.31
2023-04-06T00:49:25.028Z,102766.56
2023-04-06T00:51:53.132Z,102773.34
2023-04-06T00:54:21.269Z,102782.09
2023-04-06T00:56:49.491Z,102778.50
2023-04-06T00:59:18.022Z,102771.41
2023-04-06T01:01:46.508Z,102777.56
2023-04-06T01:04:33.297Z,102785.34
2023-04-06T01:07:02.700Z,102783.56
2023-04-06T01:09:42.176Z,102784.38
2023-04-06T01:12:18.976Z,102784.31
2023-04-06T01:14:47.212Z,102787.84
2023-04-06T01:17:17.698Z,102785.22
2023-04-06T01:19:50.345Z,102789.63
2023-04-06T01:22:26.799Z,102782.59
2023-04-06T01:25:01.237Z,102790.38
2023-04-06T01:27:40.109Z,102786.75
2023-04-06T01:30:14.730Z,102791.97
2023-04-06T01:32:48.819Z,102788.47
2023-04-06T01:35:22.039Z,102796.34
2023-04-06T01:38:02.053Z,102794.56
2023-04-06T01:40:36.867Z,102798.94
2023-04-06T01:43:05.040Z,102792.81
2023-04-06T01:45:39.583Z,102794.59
2023-04-06T01:48:17.053Z,102792.09
2023-04-06T01:50:45.443Z,102791.22
2023-04-06T01:53:19.140Z,102803.47
2023-04-06T01:55:48.655Z,102803.28
2023-04-06T01:58:27.268Z,102801.56
2023-04-06T02:00:55.652Z,102800.75
2023-04-06T02:03:23.953Z,102796.44
2023-04-06T02:06:00.384Z,102801.69
2023-04-06T02:08:36.142Z,102799.06
2023-04-06T02:11:04.299Z,102803.38
2023-04-06T02:13:39.111Z,102799.00
2023-04-06T02:16:07.874Z,102800.66
2023-04-06T02:18:36.066Z,102798.75
2023-04-06T02:21:04.275Z,102793.56
2023-04-06T02:23:32.462Z,102788.31
2023-04-06T02:26:01.805Z,102799.63
2023-04-06T02:28:30.055Z,102807.50
2023-04-06T02:30:58.337Z,102792.66
2023-04-06T02:33:28.909Z,102810.19
2023-04-06T02:35:57.250Z,102804.94
2023-04-06T02:38:25.664Z,102820.53
2023-04-06T02:40:54.197Z,102809.97
2023-04-06T02:43:26.797Z,102817.84
2023-04-06T02:46:06.397Z,102820.56
2023-04-06T02:48:38.978Z,102826.66
2023-04-06T02:51:07.398Z,102829.16
2023-04-06T02:53:36.399Z,102841.28
2023-04-06T02:56:04.674Z,102841.28
2023-04-06T02:58:46.485Z,102835.97
2023-04-06T03:01:14.935Z,102826.22
2023-04-06T03:03:44.367Z,102822.66
2023-04-06T03:06:20.142Z,102824.53
2023-04-06T03:08:51.449Z,102821.06
2023-04-06T03:11:19.735Z,102830.72
2023-04-06T03:13:50.347Z,102832.50
2023-04-06T03:16:18.491Z,102820.25
2023-04-06T03:18:48.036Z,102836.03
2023-04-06T03:21:17.268Z,102829.06
2023-04-06T03:23:52.046Z,102833.50
2023-04-06T03:26:20.491Z,102842.25
2023-04-06T03:28:49.942Z,102831.78
2023-04-06T03:31:18.559Z,102840.53
2023-04-06T03:34:06.810Z,102837.84
2023-04-06T03:36:37.294Z,102835.13
2023-04-06T03:39:06.737Z,102842.03
2023-04-06T03:41:38.494Z,102841.94
2023-04-06T03:44:33.232Z,102837.53
2023-04-06T03:47:01.997Z,102844.56
2023-04-06T03:49:30.223Z,102847.13
2023-04-06T03:51:59.454Z,102847.88
2023-04-06T03:54:27.637Z,102857.47
2023-04-06T03:56:56.249Z,102854.63
2023-04-06T03:59:27.532Z,102852.81
2023-04-06T04:01:57.347Z,102852.59
2023-04-06T04:04:25.757Z,102864.72
2023-04-06T04:06:53.886Z,102856.94
2023-04-06T04:09:22.051Z,102863.91
2023-04-06T04:11:52.456Z,102851.63
2023-04-06T04:14:21.075Z,102866.53
2023-04-06T04:16:49.163Z,102860.38
2023-04-06T04:19:18.657Z,102876.84
2023-04-06T04:21:48.699Z,102862.88
2023-04-06T04:24:21.504Z,102866.31
2023-04-06T04:26:49.816Z,102868.13
2023-04-06T04:29:20.992Z,102880.22
2023-04-06T04:31:49.398Z,102880.06
2023-04-06T04:34:21.830Z,102886.22
2023-04-06T04:36:51.688Z,102871.41
2023-04-06T04:39:27.051Z,102880.16
2023-04-06T04:42:02.811Z,102874.16
2023-04-06T04:44:33.394Z,102870.50
2023-04-06T04:47:02.618Z,102878.38
2023-04-06T04:49:42.772Z,102885.09
2023-04-06T04:52:12.005Z,102895.56
2023-04-06T04:54:52.289Z,102883.44
2023-04-06T04:57:26.437Z,102888.63
2023-04-06T04:59:55.988Z,102887.63
2023-04-06T05:02:26.587Z,102883.34
2023-04-06T05:05:07.403Z,102876.53
2023-04-06T05:07:35.986Z,102882.91
2023-04-06T05:10:04.732Z,102879.41
2023-04-06T05:12:41.007Z,102876.63
2023-04-06T05:15:12.987Z,102874.00
2023-04-06T05:17:41.372Z,102876.53
2023-04-06T05:20:13.534Z,102881.66
2023-04-06T05:22:48.410Z,102885.06
2023-04-06T05:25:17.641Z,102892.94
2023-04-06T05:27:47.704Z,102885.84
2023-04-06T05:30:28.049Z,102888.44
2023-04-06T05:32:57.128Z,102893.81
2023-04-06T05:35:30.489Z,102891.31
2023-04-06T05:38:03.956Z,102874.63
2023-04-06T05:40:32.241Z,102881.63
2023-04-06T05:43:01.712Z,102887.72
2023-04-06T05:45:31.037Z,102882.56
2023-04-06T05:48:00.119Z,102883.56
2023-04-06T05:50:32.556Z,102890.53
2023-04-06T05:53:01.294Z,102894.81
2023-04-06T05:55:35.789Z,102882.69
2023-04-06T05:58:19.185Z,102892.31
2023-04-06T06:00:49.264Z,102895.03
2023-04-06T06:03:18.871Z,102888.84
2023-04-06T06:05:53.996Z,102897.50
2023-04-06T06:08:30.342Z,102899.28
2023-04-06T06:11:00.377Z,102892.31
2023-04-06T06:13:28.464Z,102897.56
2023-04-06T06:15:57.866Z,102895.19
2023-04-06T06:18:27.212Z,102891.88
2023-04-06T06:20:57.884Z,102896.41
2023-04-06T06:23:27.550Z,102903.50
2023-04-06T06:25:57.731Z,102909.63
2023-04-06T06:28:27.266Z,102901.94
2023-04-06T06:30:55.767Z,102904.56
2023-04-06T06:33:27.139Z,102898.47
2023-04-06T06:35:58.438Z,102896.84
2023-04-06T06:38:27.192Z,102906.38
2023-04-06T06:40:56.081Z,102913.31
2023-04-06T06:43:27.270Z,102912.47
2023-04-06T06:46:04.770Z,102923.84
2023-04-06T06:48:33.156Z,102908.22
2023-04-06T06:51:02.845Z,102919.69
2023-04-06T06:53:31.171Z,102910.13
2023-04-06T06:55:59.406Z,102922.59
2023-04-06T06:58:28.154Z,102916.47
2023-04-06T07:00:58.427Z,102914.94
2023-04-06T07:03:27.132Z,102922.97
2023-04-06T07:05:56.156Z,102919.44
2023-04-06T07:08:27.205Z,102921.09
2023-04-06T07:10:57.396Z,102924.56
2023-04-06T07:13:27.769Z,102921.00
2023-04-06T07:15:58.807Z,102924.69
2023-04-06T07:18:27.370Z,102925.81
2023-04-06T07:20:55.844Z,102919.75
2023-04-06T07:23:24.891Z,102926.19
2023-04-06T07:25:56.325Z,102906.88
2023-04-06T07:28:24.784Z,102916.94
2023-04-06T07:30:53.677Z,102924.13
2023-04-06T07:33:23.526Z,102928.63
2023-04-06T07:35:53.539Z,102928.56
2023-04-06T07:38:21.901Z,102937.47
2023-04-06T07:40:50.410Z,102933.09
2023-04-06T07:43:19.829Z,102930.63
2023-04-06T07:45:48.081Z,102947.34
2023-04-06T07:48:18.388Z,102945.72
2023-04-06T07:50:46.695Z,102934.56
2023-04-06T07:53:16.077Z,102933.75
2023-04-06T07:55:46.391Z,102927.84
2023-04-06T07:58:14.544Z,102930.75
2023-04-06T08:00:44.022Z,102931.84
2023-04-06T08:03:12.855Z,102935.19
2023-04-06T08:05:41.256Z,102941.25
2023-04-06T08:08:09.415Z,102935.13
2023-04-06T08:10:37.450Z,102942.28
2023-04-06T08:13:05.641Z,102946.97
2023-04-06T08:15:33.853Z,102939.19
2023-04-06T08:18:03.798Z,102948.84
2023-04-06T08:20:32.101Z,102952.09
2023-04-06T08:23:00.385Z,102943.34
2023-04-06T08:25:28.700Z,102947.19
2023-04-06T08:27:56.849Z,102953.66
2023-04-06T08:30:24.992Z,102957.38
2023-04-06T08:32:53.171Z,102955.97
2023-04-06T08:35:22.884Z,102960.59
2023-04-06T08:37:50.991Z,102953.84
2023-04-06T08:40:19.368Z,102960.28
2023-04-06T08:42:52.730Z,102962.19
2023-04-06T08:45:22.342Z,102962.19
2023-04-06T08:47:53.344Z,102964.69
2023-04-06T08:50:23.746Z,102953.34
2023-04-06T08:52:51.961Z,102963.97
2023-04-06T08:55:20.221Z,102966.91
2023-04-06T08:57:49.209Z,102971.50
2023-04-06T09:00:18.731Z,102968.00
2023-04-06T09:02:51.722Z,102971.53
2023-04-06T09:05:20.639Z,102973.44
2023-04-06T09:07:50.092Z,102966.44
2023-04-06T09:10:19.401Z,102966.38
2023-04-06T09:12:47.675Z,102975.31
2023-04-06T09:15:24.676Z,102971.81
2023-04-06T09:17:55.656Z,102971.94
2023-04-06T09:20:27.340Z,102976.31
2023-04-06T09:22:57.485Z,102973.81
2023-04-06T09:25:27.841Z,102971.28
2023-04-06T09:28:04.524Z,102969.91
2023-04-06T09:30:32.800Z,102969.19
2023-04-06T09:33:01.307Z,102971.03
2023-04-06T09:35:31.454Z,102965.84
2023-04-06T09:38:01.041Z,102969.16
2023-04-06T09:40:30.299Z,102968.97
2023-04-06T09:43:00.411Z,102966.22
2023-04-06T09:45:31.533Z,102965.31
2023-04-06T09:48:00.167Z,102974.06
2023-04-06T09:50:29.584Z,102960.72
2023-04-06T09:53:00.110Z,102970.34
2023-04-06T09:55:34.755Z,102968.47
2023-04-06T09:58:07.258Z,102968.59
2023-04-06T10:00:45.258Z,102978.16
2023-04-06T10:03:23.282Z,102974.59
2023-04-06T10:05:59.465Z,102971.06
2023-04-06T10:08:32.719Z,102971.81
2023-04-06T10:11:04.112Z,102969.25
2023-04-06T10:13:32.290Z,102982.84
2023-04-06T10:16:02.671Z,102969.03
2023-04-06T10:18:32.251Z,102973.06
2023-04-06T10:21:06.453Z,102975.13
2023-04-06T10:23:37.466Z,102975.34
2023-04-06T10:26:08.238Z,102972.16
2023-04-06T10:28:38.239Z,102982.13
2023-04-06T10:31:08.113Z,102967.69
2023-04-06T10:33:36.658Z,102974.34
2023-04-06T10:36:14.432Z,102973.91
2023-04-06T10:38:43.996Z,102967.13
2023-04-06T10:41:14.904Z,102970.75
2023-04-06T10:43:44.037Z,102971.00
2023-04-06T10:46:12.998Z,102972.72
2023-04-06T10:48:42.904Z,102976.53
2023-04-06T10:51:15.064Z,102974.75
2023-04-06T10:53:45.365Z,102976.34
2023-04-06T10:56:16.838Z,102971.78
2023-04-06T10:58:49.535Z,102968.97
2023-04-06T11:01:18.883Z,102963.56
2023-04-06T11:03:47.875Z,102965.25
2023-04-06T11:06:23.270Z,102962.41
2023-04-06T11:08:51.761Z,102953.63
2023-04-06T11:11:22.395Z,102953.56
2023-04-06T11:13:52.453Z,102956.09
2023-04-06T11:16:23.062Z,102955.22
2023-04-06T12:20:17.980Z,102922.63
2023-04-06T12:22:53.857Z,102926.25
2023-04-06T12:25:22.031Z,102920.97
2023-04-06T12:27:50.028Z,102925.41
2023-04-06T12:30:18.438Z,102921.09
2023-04-06T12:32:48.904Z,102924.72
2023-04-06T12:35:20.099Z,102925.56
2023-04-06T12:37:48.299Z,102923.81
2023-04-06T12:40:16.517Z,102914.16
2023-04-06T12:42:44.804Z,102915.06
2023-04-06T12:45:13.390Z,102913.38
2023-04-06T12:47:41.553Z,102903.84
2023-04-06T12:50:10.397Z,102903.91
2023-04-06T12:52:39.936Z,102905.72
2023-04-06T12:55:09.059Z,102911.06
2023-04-06T12:57:38.143Z,102889.94
2023-04-06T13:00:09.204Z,102897.91
2023-04-06T13:02:37.769Z,102890.91
2023-04-06T13:05:06.458Z,102879.63
2023-04-06T13:07:34.602Z,102884.03
2023-04-06T13:10:04.204Z,102886.78
2023-04-06T13:12:32.342Z,102882.41
2023-04-06T13:15:01.014Z,102871.91
2023-04-06T13:17:30.407Z,102869.34
2023-04-06T13:19:58.396Z,102867.63
2023-04-06T13:22:26.757Z,102862.34
2023-04-06T13:24:54.886Z,102868.53
2023-04-06T13:27:24.297Z,102864.97
2023-04-06T13:29:52.377Z,102874.69
2023-04-06T13:32:20.675Z,102866.78
2023-04-06T13:34:49.830Z,102856.22
2023-04-06T13:37:17.953Z,102858.00
2023-04-06T13:39:46.064Z,102855.47
2023-04-06T13:42:14.093Z,102856.41
2023-04-06T13:44:43.515Z,102850.28
2023-04-06T13:47:11.595Z,102855.59
2023-04-06T13:49:39.592Z,102851.22
2023-04-06T13:52:07.594Z,102849.44
2023-04-06T13:54:38.534Z,102851.28
2023-04-06T13:57:08.570Z,102848.69
2023-04-06T13:59:37.624Z,102851.31
2023-04-06T14:02:08.660Z,102848.69
2023-04-06T14:04:36.824Z,102854.84
2023-04-06T14:07:08.204Z,102853.06
2023-04-06T14:09:36.639Z,102848.69
2023-04-06T14:12:04.652Z,102851.31
2023-04-06T14:14:32.788Z,102854.00
2023-04-06T14:17:01.058Z,102842.59
2023-04-06T14:19:31.061Z,102842.59
2023-04-06T14:22:00.051Z,102833.78
2023-04-06T14:24:28.146Z,102841.78
2023-04-06T14:26:57.079Z,102838.28
2023-04-06T14:29:25.349Z,102840.06
2023-04-06T14:31:53.340Z,102829.50
2023-04-06T14:34:22.256Z,102825.09
2023-04-06T14:36:51.623Z,102830.47
2023-04-06T14:39:19.639Z,102823.41
2023-04-06T14:41:49.825Z,102813.72
2023-04-06T14:44:19.053Z,102819.00
2023-04-06T14:46:47.353Z,102816.38
2023-04-06T14:49:15.475Z,102826.06
2023-04-06T14:51:43.649Z,102811.09
2023-04-06T14:54:13.051Z,102810.22
2023-04-06T14:56:41.123Z,102812.00
2023-04-06T14:59:09.109Z,102807.59
2023-04-06T15:01:37.821Z,102805.88
2023-04-06T15:04:06.685Z,102802.38
2023-04-06T15:06:34.871Z,102807.63
2023-04-06T15:09:03.628Z,102800.63
2023-04-06T15:11:33.012Z,102802.38
2023-04-06T15:14:02.451Z,102797.94
2023-04-06T15:16:33.302Z,102807.66
2023-04-06T15:19:02.426Z,102804.13
2023-04-06T15:21:31.194Z,102796.22
2023-04-06T15:23:59.431Z,102799.72
2023-04-06T15:26:27.823Z,102795.34
2023-04-06T15:28:57.190Z,102795.34
2023-04-06T15:31:36.521Z,102792.69
2023-04-06T15:34:08.884Z,102792.66
2023-04-06T15:36:37.771Z,102785.56
2023-04-06T15:39:09.559Z,102784.75
2023-04-06T15:41:38.246Z,102793.50
2023-04-06T15:44:07.588Z,102790.84
2023-04-06T15:46:35.624Z,102794.38
2023-04-06T15:49:03.760Z,102791.66
2023-04-06T15:51:31.913Z,102793.41
2023-04-06T15:53:59.962Z,102798.66
2023-04-06T15:56:28.073Z,102790.66
2023-04-06T15:58:56.074Z,102803.84
2023-04-06T16:01:25.669Z,102798.56
2023-04-06T16:03:53.917Z,102797.59
2023-04-06T16:06:22.100Z,102786.06
2023-04-06T16:08:50.147Z,102790.38
2023-04-06T16:11:18.237Z,102789.50
2023-04-06T16:13:50.071Z,102792.94
2023-04-06T16:16:23.154Z,102792.03
2023-04-06T16:18:52.740Z,102788.47
2023-04-06T16:21:20.913Z,102792.81
2023-04-06T16:23:49.091Z,102794.53
2023-04-06T16:26:18.952Z,102786.56
2023-04-06T16:28:47.537Z,102785.59
2023-04-06T16:31:20.389Z,102782.06
2023-04-06T16:33:48.756Z,102787.34
2023-04-06T16:36:23.450Z,102784.63
2023-04-06T16:38:51.569Z,102786.34
2023-04-06T16:41:19.704Z,102778.34
2023-04-06T16:43:48.140Z,102783.53
2023-04-06T16:46:17.358Z,102783.41
2023-04-06T16:48:45.586Z,102774.53
2023-04-06T16:51:13.712Z,102783.25
2023-04-06T16:53:43.126Z,102785.75
2023-04-06T16:56:11.366Z,102789.19
2023-04-06T16:58:39.534Z,102789.97
2023-04-06T17:01:07.806Z,102782.03
2023-04-06T17:03:35.938Z,102789.78
2023-04-06T17:06:03.974Z,102792.38
2023-04-06T17:08:32.052Z,102801.06
2023-04-06T17:11:04.564Z,102793.03
2023-04-06T17:13:32.891Z,102785.06
2023-04-06T17:16:01.421Z,102788.44
2023-04-06T17:18:30.169Z,102794.50
2023-04-06T17:20:58.502Z,102794.41
2023-04-06T17:23:27.071Z,102794.31
2023-04-06T17:25:57.356Z,102802.16
2023-04-06T17:28:27.369Z,102796.78
2023-04-06T17:30:56.417Z,102794.00
2023-04-06T17:33:24.652Z,102789.50
2023-04-06T17:35:52.922Z,102801.78
2023-04-06T17:38:21.319Z,102797.31
2023-04-06T17:40:49.632Z,102792.88
2023-04-06T17:43:18.142Z,102796.28
2023-04-06T17:45:50.474Z,102800.59
2023-04-06T17:48:18.681Z,102799.66
2023-04-06T17:50:47.053Z,102801.34
2023-04-06T17:53:16.948Z,102803.03
2023-04-06T17:55:44.959Z,102798.63
2023-04-06T17:58:13.103Z,102797.69
2023-04-06T18:00:41.278Z,102794.97
2023-04-06T18:03:10.789Z,102792.28
2023-04-06T18:05:39.672Z,102799.25
2023-04-06T18:08:07.841Z,102802.63
2023-04-06T18:10:39.983Z,102798.13
2023-04-06T18:13:08.191Z,102795.50
2023-04-06T18:15:38.313Z,102802.41
2023-04-06T18:18:07.443Z,102800.63
2023-04-06T18:20:41.097Z,102801.50
2023-04-06T18:23:09.254Z,102807.63
2023-04-06T18:25:39.592Z,102811.94
2023-04-06T18:28:07.938Z,102807.47
2023-04-06T18:30:37.187Z,102808.38
2023-04-06T18:33:06.702Z,102817.13
2023-04-06T18:35:36.310Z,102807.38
2023-04-06T18:38:04.487Z,102817.16
2023-04-06T18:40:36.910Z,102821.53
2023-04-06T18:43:06.261Z,102814.38
2023-04-06T18:45:35.304Z,102817.91
2023-04-06T18:48:03.460Z,102822.22
2023-04-06T18:50:31.576Z,102820.50
2023-04-06T18:53:01.201Z,102816.03
2023-04-06T18:55:29.513Z,102823.03
2023-04-06T18:57:58.016Z,102811.59
2023-04-06T19:00:26.383Z,102822.97
2023-04-06T19:02:54.587Z,102818.47
2023-04-06T19:05:23.196Z,102828.16
2023-04-06T19:07:52.709Z,102827.19
2023-04-06T19:10:22.283Z,102836.09
2023-04-06T19:12:50.234Z,102827.28
2023-04-06T19:15:18.193Z,102826.34
2023-04-06T19:17:47.821Z,102837.72
2023-04-06T19:20:15.953Z,102835.09
2023-04-06T19:22:44.832Z,102830.56
2023-04-06T19:25:14.180Z,102837.53
2023-04-06T19:27:43.832Z,102844.53
2023-04-06T19:30:13.024Z,102845.41
2023-04-06T19:32:41.496Z,102840.06
2023-04-06T19:35:09.816Z,102840.94
2023-04-06T19:37:38.852Z,102839.09
2023-04-06T19:40:10.656Z,102839.91
2023-04-06T19:42:39.726Z,102839.84
2023-04-06T19:45:10.085Z,102849.41
2023-04-06T19:47:38.615Z,102840.69
2023-04-06T19:50:09.978Z,102832.72
2023-04-06T19:52:38.216Z,102844.94
2023-04-06T19:55:07.095Z,102840.63
2023-04-06T19:57:35.061Z,102842.22
2023-04-06T20:00:04.429Z,102845.72
2023-04-06T20:02:39.093Z,102845.63
2023-04-06T20:05:07.986Z,102842.09
2023-04-06T20:07:38.934Z,102849.06
2023-04-06T20:10:09.134Z,102842.91
2023-04-06T20:12:37.175Z,102844.66
2023-04-06T20:15:06.230Z,102857.66
2023-04-06T20:17:34.348Z,102851.50
2023-04-06T20:20:03.874Z,102856.66
2023-04-06T20:22:31.916Z,102863.59
2023-04-06T20:25:00.151Z,102860.06
2023-04-06T20:27:28.652Z,102862.59
2023-04-06T20:29:56.940Z,102865.09
2023-04-06T20:32:25.771Z,102858.00
2023-04-06T20:34:54.214Z,102864.16
2023-04-06T20:37:24.444Z,102862.31
2023-04-06T20:39:52.873Z,102872.81
2023-04-06T20:42:22.633Z,102864.81
2023-04-06T20:44:50.757Z,102871.75
2023-04-06T20:47:18.952Z,102867.28
2023-04-06T20:49:47.311Z,102868.09
2023-04-06T20:52:16.195Z,102874.22
2023-04-06T20:54:45.578Z,102875.88
2023-04-06T20:57:13.564Z,102865.38
2023-04-06T20:59:41.678Z,102864.47
2023-04-06T21:02:09.961Z,102869.63
2023-04-06T21:04:38.736Z,102879.16
2023-04-06T21:07:07.334Z,102873.81
2023-04-06T21:09:36.683Z,102872.00
2023-04-06T21:12:07.837Z,102877.19
2023-04-06T21:14:36.599Z,102871.00
2023-04-06T21:17:04.779Z,102873.56
2023-04-06T21:19:33.197Z,102877.91
2023-04-06T21:22:01.364Z,102889.16
2023-04-06T21:24:29.366Z,102882.09
2023-04-06T21:26:57.363Z,102884.66
2023-04-06T21:29:26.767Z,102880.19
2023-04-06T21:31:55.761Z,102883.63
2023-04-06T21:34:23.873Z,102889.69
2023-04-06T21:36:52.032Z,102889.63
2023-04-06T21:39:20.100Z,102885.97
2023-04-06T21:41:48.098Z,102882.44
2023-04-06T21:44:16.227Z,102887.69
2023-04-06T21:46:45.731Z,102891.13
2023-04-06T21:49:13.748Z,102883.22
2023-04-06T21:51:41.771Z,102884.94
2023-04-06T21:54:09.920Z,102891.88
2023-04-06T21:56:38.009Z,102889.16
2023-04-06T21:59:06.105Z,102886.47
2023-04-06T22:01:34.175Z,102883.81
2023-04-06T22:04:03.756Z,102884.69
2023-04-06T22:06:32.015Z,102888.16
2023-04-06T22:09:00.495Z,102884.63
2023-04-06T22:11:28.530Z,102882.81
2023-04-06T22:13:56.502Z,102896.75
2023-04-06T22:16:24.573Z,102894.16
2023-04-06T22:18:52.748Z,102885.31
2023-04-06T22:21:22.162Z,102889.69
2023-04-06T22:23:50.269Z,102894.03
2023-04-06T22:26:18.317Z,102892.25
2023-04-06T22:28:46.429Z,102896.59
2023-04-06T22:31:14.676Z,102886.88
2023-04-06T22:33:42.694Z,102892.06
2023-04-06T22:36:10.963Z,102891.09
2023-04-06T22:38:40.639Z,102887.56
2023-04-06T22:41:08.819Z,102893.53
2023-04-06T22:43:36.975Z,102891.78
2023-04-06T22:46:05.685Z,102896.97
2023-04-06T22:48:33.899Z,102895.22
2023-04-06T22:51:01.862Z,102897.84
2023-04-06T22:53:30.057Z,102886.34
2023-04-06T22:55:59.431Z,102906.56
2023-04-06T22:58:27.380Z,102894.28
2023-04-06T23:00:55.520Z,102893.31
2023-04-06T23:03:23.657Z,102902.94
2023-04-06T23:05:51.748Z,102903.81
2023-04-06T23:08:19.833Z,102898.50
2023-04-06T23:10:47.884Z,102895.69
2023-04-06T23:13:17.335Z,102902.69
2023-04-06T23:15:45.377Z,102902.66
2023-04-06T23:18:13.442Z,102905.28
2023-04-06T23:20:41.632Z,102906.09
2023-04-06T23:23:09.704Z,102913.84
2023-04-06T23:25:37.913Z,102900.59
2023-04-06T23:28:06.297Z,102906.66
2023-04-06T23:30:35.726Z,102903.97
2023-04-06T23:33:03.844Z,102912.66
2023-04-06T23:35:31.935Z,102909.84
2023-04-06T23:38:00.009Z,102919.50
2023-04-06T23:40:27.948Z,102921.06
2023-04-06T23:42:56.208Z,102916.53
2023-04-06T23:45:24.641Z,102914.66
2023-04-06T23:47:54.109Z,102907.41
2023-04-06T23:50:22.353Z,102905.56
2023-04-06T23:52:50.660Z,102908.09
2023-04-06T23:55:18.780Z,102900.78
2023-04-06T23:57:46.858Z,102911.28
